createdAt,value
2022-10-28T00:02:05.066Z,11.45
2022-10-28T00:04:31.768Z,11.69
2022-10-28T00:06:58.393Z,11.66
2022-10-28T00:09:24.948Z,11.75
2022-10-28T00:11:51.579Z,11.69
2022-10-28T00:14:18.277Z,11.42
2022-10-28T00:16:44.878Z,11.47
2022-10-28T00:19:12.559Z,11.68
2022-10-28T00:21:40.887Z,11.64
2022-10-28T00:24:09.124Z,11.37
2022-10-28T00:26:38.000Z,11.26
2022-10-28T00:29:08.275Z,11.57
2022-10-28T00:31:36.375Z,11.61
2022-10-28T00:34:05.607Z,11.75
2022-10-28T00:36:35.282Z,11.79
2022-10-28T00:39:03.987Z,11.66
2022-10-28T00:41:34.286Z,11.81
2022-10-28T00:44:22.550Z,11.78
2022-10-28T00:46:52.018Z,11.77
2022-10-28T00:49:28.850Z,11.86
2022-10-28T00:52:10.334Z,11.96
2022-10-28T00:54:38.015Z,12.05
2022-10-28T00:57:09.835Z,12.05
2022-10-28T00:59:40.027Z,12.06
2022-10-28T01:02:06.716Z,11.98
2022-10-28T01:04:33.802Z,11.96
2022-10-28T01:07:02.271Z,11.97
2022-10-28T01:09:28.851Z,11.77
2022-10-28T01:12:01.332Z,11.68
2022-10-28T01:15:04.700Z,11.66
2022-10-28T01:17:49.753Z,11.51
2022-10-28T01:20:19.254Z,11.63
2022-10-28T01:23:05.223Z,11.82
2022-10-28T01:25:58.350Z,11.77
2022-10-28T01:29:02.734Z,11.74
2022-10-28T01:32:12.977Z,11.84
2022-10-28T01:35:21.802Z,11.79
2022-10-28T01:38:07.475Z,11.82
2022-10-28T01:40:40.710Z,11.91
2022-10-28T01:43:20.158Z,12.02
2022-10-28T01:46:14.257Z,12.04
2022-10-28T01:48:48.485Z,12.12
2022-10-28T01:51:22.774Z,12.18
2022-10-28T01:53:53.696Z,12.19
2022-10-28T01:56:27.062Z,12.10
2022-10-28T01:58:56.720Z,12.41
2022-10-28T02:01:24.920Z,12.40
2022-10-28T02:03:52.448Z,12.42
2022-10-28T02:06:22.465Z,12.30
2022-10-28T02:09:02.627Z,12.40
2022-10-28T02:11:41.536Z,12.35
2022-10-28T02:14:29.507Z,12.35
2022-10-28T02:17:19.479Z,12.34
2022-10-28T02:19:58.655Z,12.54
2022-10-28T02:22:37.464Z,12.45
2022-10-28T02:25:16.822Z,12.43
2022-10-28T02:27:46.354Z,12.50
2022-10-28T02:30:16.690Z,12.42
2022-10-28T02:32:49.032Z,12.52
2022-10-28T02:35:28.159Z,12.59
2022-10-28T02:37:56.256Z,12.70
2022-10-28T02:40:27.115Z,12.62
2022-10-28T02:43:06.435Z,12.44
2022-10-28T02:45:41.650Z,12.61
2022-10-28T02:48:20.024Z,12.77
2022-10-28T02:50:53.387Z,12.81
2022-10-28T02:56:00.895Z,12.74
2022-10-28T02:58:27.574Z,12.69
2022-10-28T03:00:54.173Z,12.79
2022-10-28T03:03:20.876Z,12.69
2022-10-28T03:05:47.497Z,12.67
2022-10-28T03:08:14.015Z,12.67
2022-10-28T03:10:40.606Z,12.70
2022-10-28T03:13:07.530Z,12.73
2022-10-28T03:15:34.175Z,12.75
2022-10-28T03:18:00.667Z,12.67
2022-10-28T03:20:27.319Z,12.72
2022-10-28T03:22:54.048Z,12.76
2022-10-28T03:25:20.828Z,12.57
2022-10-28T03:27:47.374Z,12.61
2022-10-28T03:30:14.095Z,12.66
2022-10-28T03:32:43.409Z,12.57
2022-10-28T03:35:10.135Z,12.43
2022-10-28T03:37:36.818Z,12.47
2022-10-28T03:40:03.921Z,12.63
2022-10-28T03:42:30.448Z,12.52
2022-10-28T03:44:57.042Z,12.70
2022-10-28T03:47:23.524Z,12.48
2022-10-28T03:49:50.114Z,12.56
2022-10-28T03:52:16.744Z,12.47
2022-10-28T03:54:43.333Z,12.48
2022-10-28T03:57:09.905Z,12.54
2022-10-28T03:59:36.483Z,12.87
2022-10-28T04:02:03.067Z,12.82
2022-10-28T04:04:30.758Z,12.92
2022-10-28T04:06:57.597Z,12.96
2022-10-28T04:09:24.232Z,12.82
2022-10-28T04:11:50.754Z,12.81
2022-10-28T04:14:17.372Z,12.84
2022-10-28T04:16:43.867Z,12.96
2022-10-28T04:19:10.598Z,12.98
2022-10-28T04:21:37.164Z,13.00
2022-10-28T04:24:03.984Z,12.95
2022-10-28T04:26:30.680Z,13.11
2022-10-28T04:28:57.634Z,12.95
2022-10-28T04:31:24.144Z,13.05
2022-10-28T04:33:50.741Z,13.15
2022-10-28T04:36:17.228Z,13.29
2022-10-28T04:38:43.820Z,13.22
2022-10-28T04:41:14.385Z,13.03
2022-10-28T04:43:40.962Z,12.89
2022-10-28T04:46:07.466Z,12.97
2022-10-28T04:48:34.818Z,12.96
2022-10-28T04:51:01.400Z,12.87
2022-10-28T04:53:28.019Z,13.05
2022-10-28T04:55:58.553Z,12.97
2022-10-28T04:58:26.305Z,12.95
2022-10-28T05:00:52.822Z,13.16
2022-10-28T05:03:19.587Z,13.10
2022-10-28T05:05:46.914Z,13.32
2022-10-28T05:08:13.450Z,13.51
2022-10-28T05:10:40.066Z,13.65
2022-10-28T05:13:06.634Z,13.61
2022-10-28T05:15:33.139Z,13.69
2022-10-28T05:17:59.782Z,13.82
2022-10-28T05:20:26.434Z,13.87
2022-10-28T05:22:54.188Z,13.80
2022-10-28T05:25:23.731Z,13.85
2022-10-28T05:27:50.480Z,13.72
2022-10-28T05:30:17.370Z,13.64
2022-10-28T05:32:44.199Z,13.39
2022-10-28T05:35:11.149Z,13.39
2022-10-28T05:37:37.793Z,13.46
2022-10-28T05:40:04.871Z,13.44
2022-10-28T05:42:31.564Z,13.32
2022-10-28T05:44:58.120Z,13.13
2022-10-28T05:47:24.701Z,12.97
2022-10-28T05:49:51.207Z,12.99
2022-10-28T05:52:17.767Z,13.08
2022-10-28T05:54:44.307Z,12.89
2022-10-28T05:57:10.903Z,12.84
2022-10-28T05:59:37.410Z,12.93
2022-10-28T06:02:04.061Z,13.02
2022-10-28T06:04:30.554Z,13.19
2022-10-28T06:06:57.150Z,13.25
2022-10-28T06:09:23.777Z,13.32
2022-10-28T06:11:48.788Z,13.12
2022-10-28T06:14:15.286Z,13.12
2022-10-28T06:16:42.105Z,13.20
2022-10-28T06:19:08.634Z,13.23
2022-10-28T06:21:35.246Z,13.08
2022-10-28T06:24:01.937Z,12.81
2022-10-28T06:26:28.482Z,12.82
2022-10-28T06:28:55.047Z,12.84
2022-10-28T06:31:21.836Z,12.67
2022-10-28T06:33:48.330Z,12.68
2022-10-28T06:36:14.919Z,12.81
2022-10-28T06:38:41.469Z,12.69
2022-10-28T06:41:08.083Z,12.68
2022-10-28T06:43:34.592Z,12.79
2022-10-28T06:46:03.124Z,13.04
2022-10-28T06:48:31.669Z,13.18
2022-10-28T06:50:58.308Z,13.18
2022-10-28T06:53:25.389Z,13.32
2022-10-28T06:55:53.622Z,13.36
2022-10-28T06:58:20.175Z,13.42
2022-10-28T07:00:47.309Z,13.42
2022-10-28T07:03:13.855Z,13.42
2022-10-28T07:05:40.839Z,13.36
2022-10-28T07:08:09.638Z,13.42
2022-10-28T07:10:36.226Z,13.43
2022-10-28T07:13:02.877Z,13.38
2022-10-28T07:15:29.867Z,13.21
2022-10-28T07:17:57.944Z,13.15
2022-10-28T07:20:26.213Z,13.25
2022-10-28T07:23:00.291Z,13.14
2022-10-28T07:25:28.754Z,13.12
2022-10-28T07:27:58.001Z,12.99
2022-10-28T07:30:25.089Z,13.15
2022-10-28T07:32:51.838Z,13.22
2022-10-28T07:35:18.637Z,13.26
2022-10-28T07:37:45.666Z,13.40
2022-10-28T07:40:12.773Z,13.50
2022-10-28T07:42:39.305Z,13.54
2022-10-28T07:45:06.503Z,13.62
2022-10-28T07:47:33.173Z,13.41
2022-10-28T07:49:59.741Z,13.62
2022-10-28T07:52:26.334Z,13.66
2022-10-28T07:54:52.932Z,13.80
2022-10-28T07:57:19.840Z,13.76
2022-10-28T07:59:46.542Z,13.73
2022-10-28T08:02:18.666Z,14.02
2022-10-28T08:04:45.266Z,14.09
2022-10-28T08:07:12.863Z,14.12
2022-10-28T08:09:40.912Z,14.02
2022-10-28T08:12:08.952Z,14.02
2022-10-28T08:14:35.599Z,14.14
2022-10-28T08:17:03.179Z,14.17
2022-10-28T08:19:29.820Z,14.30
2022-10-28T08:21:56.619Z,14.02
2022-10-28T08:24:23.722Z,14.12
2022-10-28T08:26:50.647Z,14.20
2022-10-28T08:29:17.291Z,14.35
2022-10-28T08:31:43.853Z,14.52
2022-10-28T08:34:10.564Z,14.68
2022-10-28T08:36:37.206Z,14.96
2022-10-28T08:39:03.939Z,15.15
2022-10-28T08:41:36.528Z,15.29
2022-10-28T08:44:28.014Z,15.44
2022-10-28T08:47:06.540Z,15.58
2022-10-28T08:49:36.455Z,15.71
2022-10-28T08:52:18.455Z,15.75
2022-10-28T08:54:52.610Z,15.87
2022-10-28T08:57:48.695Z,16.04
2022-10-28T09:00:33.920Z,16.09
2022-10-28T09:03:03.215Z,16.12
2022-10-28T09:05:29.788Z,16.19
2022-10-28T09:07:58.282Z,16.17
2022-10-28T09:10:33.669Z,16.62
2022-10-28T09:13:17.250Z,16.94
2022-10-28T09:16:15.282Z,17.17
2022-10-28T09:18:52.629Z,17.28
2022-10-28T09:21:41.536Z,17.16
2022-10-28T09:24:19.324Z,16.69
2022-10-28T09:27:11.966Z,16.50
2022-10-28T09:29:52.222Z,16.99
2022-10-28T09:32:47.806Z,17.21
2022-10-28T09:35:19.260Z,17.57
2022-10-28T09:37:52.500Z,17.27
2022-10-28T09:40:26.053Z,17.25
2022-10-28T09:43:04.414Z,17.06
2022-10-28T09:45:33.376Z,17.20
2022-10-28T09:48:30.830Z,17.57
2022-10-28T09:50:59.098Z,17.81
2022-10-28T09:53:53.186Z,17.99
2022-10-28T09:56:19.870Z,17.47
2022-10-28T09:58:48.198Z,18.13
2022-10-28T10:01:18.868Z,18.10
2022-10-28T10:03:49.437Z,18.12
2022-10-28T10:06:29.669Z,18.22
2022-10-28T10:08:56.916Z,18.37
2022-10-28T10:11:29.111Z,18.64
2022-10-28T10:13:58.725Z,18.53
2022-10-28T10:16:41.180Z,18.50
2022-10-28T10:19:09.883Z,18.51
2022-10-28T10:21:51.320Z,18.55
2022-10-28T10:24:25.580Z,18.59
2022-10-28T10:26:52.940Z,18.60
2022-10-28T10:29:20.582Z,18.50
2022-10-28T10:31:48.202Z,18.59
2022-10-28T10:34:25.314Z,18.70
2022-10-28T10:36:55.737Z,18.86
2022-10-28T10:39:36.416Z,18.90
2022-10-28T10:42:03.446Z,18.74
2022-10-28T10:44:34.157Z,18.86
2022-10-28T10:47:05.097Z,18.92
2022-10-28T10:49:34.531Z,18.99
2022-10-28T10:52:04.739Z,19.03
2022-10-28T10:54:33.529Z,19.21
2022-10-28T10:57:19.497Z,19.33
2022-10-28T10:59:49.092Z,19.35
2022-10-28T11:02:25.061Z,19.31
2022-10-28T11:04:55.456Z,19.42
2022-10-28T11:07:22.578Z,19.35
2022-10-28T11:09:50.979Z,19.45
2022-10-28T11:12:30.097Z,19.66
2022-10-28T11:15:02.127Z,19.71
2022-10-28T11:20:23.441Z,19.81
2022-10-28T11:23:03.571Z,19.82
2022-10-28T11:25:37.401Z,19.72
2022-10-28T11:28:18.017Z,19.80
2022-10-28T11:31:18.601Z,19.76
2022-10-28T11:33:59.048Z,19.71
2022-10-28T11:36:42.358Z,19.82
2022-10-28T11:39:55.127Z,19.62
2022-10-28T11:42:48.069Z,19.48
2022-10-28T11:45:28.196Z,19.58
2022-10-28T11:48:15.434Z,19.50
2022-10-28T11:51:32.946Z,19.59
2022-10-28T11:54:13.189Z,19.67
2022-10-28T11:56:54.551Z,19.72
2022-10-28T11:59:36.192Z,19.74
2022-10-28T12:02:20.001Z,19.82
2022-10-28T12:05:15.546Z,19.99
2022-10-28T12:08:06.926Z,20.11
2022-10-28T12:10:50.412Z,20.15
2022-10-28T12:13:31.505Z,20.28
2022-10-28T12:16:07.680Z,20.44
2022-10-28T12:18:59.983Z,20.47
2022-10-28T12:21:40.216Z,20.33
2022-10-28T12:24:14.626Z,20.19
2022-10-28T12:26:44.787Z,20.29
2022-10-28T12:29:37.262Z,20.48
2022-10-28T12:32:18.983Z,20.63
2022-10-28T12:34:51.709Z,20.68
2022-10-28T12:37:24.087Z,20.87
2022-10-28T12:40:04.384Z,20.81
2022-10-28T12:42:37.635Z,20.77
2022-10-28T12:45:11.157Z,20.26
2022-10-28T12:48:14.676Z,20.28
2022-10-28T12:50:54.833Z,20.50
2022-10-28T12:53:39.493Z,20.74
2022-10-28T12:56:13.419Z,20.77
2022-10-28T13:01:36.677Z,20.39
2022-10-28T13:04:03.789Z,20.44
2022-10-28T13:06:49.126Z,20.65
2022-10-28T13:09:44.506Z,20.71
2022-10-28T13:12:18.069Z,20.87
2022-10-28T13:15:06.246Z,20.92
2022-10-28T13:17:50.886Z,20.88
2022-10-28T13:20:22.207Z,20.91
2022-10-28T13:23:03.846Z,20.61
2022-10-28T13:26:07.900Z,20.70
2022-10-28T13:28:41.363Z,20.45
2022-10-28T13:31:08.724Z,20.32
2022-10-28T13:33:38.031Z,20.42
2022-10-28T13:36:18.435Z,20.43
2022-10-28T13:38:54.399Z,20.39
2022-10-28T13:41:41.027Z,20.40
2022-10-28T13:44:10.007Z,20.32
2022-10-28T13:47:14.269Z,20.29
2022-10-28T13:50:05.610Z,19.82
2022-10-28T13:52:45.324Z,19.83
2022-10-28T13:55:27.658Z,20.03
2022-10-28T13:58:04.528Z,20.05
2022-10-28T14:00:31.080Z,20.16
2022-10-28T14:03:01.088Z,20.19
2022-10-28T14:05:37.167Z,20.10
2022-10-28T14:08:37.420Z,20.09
2022-10-28T14:11:11.646Z,20.21
2022-10-28T14:14:03.586Z,20.13
2022-10-28T14:16:43.045Z,20.11
2022-10-28T14:19:09.602Z,20.05
2022-10-28T14:21:59.195Z,19.85
2022-10-28T14:24:43.732Z,19.90
2022-10-28T14:27:19.965Z,19.95
2022-10-28T14:29:49.702Z,20.08
2022-10-28T14:32:31.184Z,20.09
2022-10-28T14:35:17.860Z,20.16
2022-10-28T14:37:59.829Z,20.01
2022-10-28T14:41:17.037Z,19.99
2022-10-28T14:43:50.314Z,19.95
2022-10-28T14:46:54.503Z,19.69
2022-10-28T14:49:25.411Z,19.51
2022-10-28T14:51:53.748Z,19.67
2022-10-28T14:54:48.346Z,19.59
2022-10-28T14:57:16.380Z,19.62
2022-10-28T14:59:45.253Z,19.62
2022-10-28T15:02:25.428Z,19.69
2022-10-28T15:05:03.468Z,19.66
2022-10-28T15:07:35.616Z,19.57
2022-10-28T15:10:27.905Z,19.39
2022-10-28T15:12:56.362Z,19.65
2022-10-28T15:15:28.121Z,19.58
2022-10-28T15:17:55.435Z,19.62
2022-10-28T15:20:27.187Z,19.60
2022-10-28T15:23:10.628Z,19.61
2022-10-28T15:25:37.217Z,19.63
2022-10-28T15:28:04.019Z,19.54
2022-10-28T15:30:30.850Z,19.32
2022-10-28T15:33:18.903Z,19.09
2022-10-28T15:35:46.908Z,19.04
2022-10-28T15:38:28.434Z,18.96
2022-10-28T15:40:55.578Z,18.92
2022-10-28T15:43:27.508Z,18.89
2022-10-28T15:45:54.744Z,18.81
2022-10-28T15:48:26.179Z,18.59
2022-10-28T15:51:15.873Z,18.53
2022-10-28T15:53:46.831Z,18.57
2022-10-28T15:56:16.145Z,18.51
2022-10-28T15:58:45.321Z,18.50
2022-10-28T16:01:30.642Z,18.44
2022-10-28T16:03:57.705Z,18.18
2022-10-28T16:06:30.297Z,17.83
2022-10-28T16:09:18.582Z,17.67
2022-10-28T16:11:49.930Z,17.58
2022-10-28T16:14:35.366Z,17.42
2022-10-28T16:17:23.288Z,17.15
2022-10-28T16:19:52.638Z,17.22
2022-10-28T16:22:19.777Z,17.13
2022-10-28T16:24:46.619Z,17.24
2022-10-28T16:27:33.501Z,17.26
2022-10-28T16:30:00.206Z,17.24
2022-10-28T16:32:33.915Z,17.11
2022-10-28T16:35:02.007Z,17.12
2022-10-28T16:37:31.823Z,17.18
2022-10-28T16:39:58.481Z,17.12
2022-10-28T16:42:25.488Z,16.78
2022-10-28T16:44:52.117Z,16.88
2022-10-28T16:47:21.169Z,16.95
2022-10-28T16:49:52.677Z,17.06
2022-10-28T16:52:28.630Z,17.18
2022-10-28T16:54:55.739Z,17.24
2022-10-28T16:59:54.488Z,17.14
2022-10-28T17:02:32.574Z,17.12
2022-10-28T17:04:59.729Z,17.03
2022-10-28T17:07:27.625Z,17.13
2022-10-28T17:09:54.384Z,17.09
2022-10-28T17:12:23.633Z,17.07
2022-10-28T17:14:50.679Z,17.06
2022-10-28T17:17:17.569Z,16.92
2022-10-28T17:19:44.352Z,16.92
2022-10-28T17:22:11.651Z,16.92
2022-10-28T17:24:38.684Z,16.93
2022-10-28T17:27:06.666Z,16.67
2022-10-28T17:29:33.232Z,16.78
2022-10-28T17:31:59.819Z,16.87
2022-10-28T17:34:26.462Z,16.97
2022-10-28T17:36:53.000Z,16.95
2022-10-28T17:39:25.659Z,16.87
2022-10-28T17:41:53.177Z,16.79
2022-10-28T17:44:19.680Z,16.80
2022-10-28T17:46:49.260Z,16.87
2022-10-28T17:49:15.795Z,16.77
2022-10-28T17:51:42.697Z,16.82
2022-10-28T17:54:09.608Z,16.16
2022-10-28T17:56:37.332Z,16.85
2022-10-28T17:59:04.136Z,16.99
2022-10-28T18:01:32.725Z,16.95
2022-10-28T18:03:59.409Z,17.11
2022-10-28T18:06:26.035Z,17.17
2022-10-28T18:08:52.602Z,17.21
2022-10-28T18:11:19.545Z,16.94
2022-10-28T18:13:47.963Z,17.05
2022-10-28T18:16:17.549Z,17.08
2022-10-28T18:18:44.342Z,17.03
2022-10-28T18:21:12.154Z,16.95
2022-10-28T18:23:39.071Z,16.95
2022-10-28T18:26:09.409Z,16.90
2022-10-28T18:28:36.910Z,16.82
2022-10-28T18:31:05.915Z,16.70
2022-10-28T18:33:34.252Z,16.54
2022-10-28T18:36:21.522Z,16.32
2022-10-28T18:38:48.518Z,16.19
2022-10-28T18:41:20.355Z,16.24
2022-10-28T18:43:47.359Z,16.05
2022-10-28T18:46:14.453Z,16.01
2022-10-28T18:48:41.417Z,15.90
2022-10-28T18:51:11.266Z,15.92
2022-10-28T18:53:40.327Z,15.92
2022-10-28T18:56:08.523Z,15.67
2022-10-28T18:58:35.325Z,15.52
2022-10-28T19:01:10.295Z,15.65
2022-10-28T19:03:37.728Z,15.75
2022-10-28T19:06:10.613Z,15.74
2022-10-28T19:08:38.101Z,15.65
2022-10-28T19:11:05.490Z,15.66
2022-10-28T19:13:36.923Z,15.62
2022-10-28T19:16:04.231Z,15.47
2022-10-28T19:18:31.555Z,15.59
2022-10-28T19:21:06.870Z,15.60
2022-10-28T19:23:34.158Z,15.59
2022-10-28T19:26:00.855Z,15.67
2022-10-28T19:28:27.924Z,15.64
2022-10-28T19:31:02.441Z,15.73
2022-10-28T19:33:30.698Z,15.75
2022-10-28T19:36:06.816Z,15.72
2022-10-28T19:38:37.921Z,15.71
2022-10-28T19:41:07.644Z,15.60
2022-10-28T19:43:35.188Z,15.82
2022-10-28T19:46:07.932Z,15.65
2022-10-28T19:48:34.522Z,15.79
2022-10-28T19:51:01.065Z,15.92
2022-10-28T19:53:27.722Z,15.63
2022-10-28T19:56:02.840Z,15.87
2022-10-28T19:58:31.324Z,15.85
2022-10-28T20:00:59.797Z,15.81
2022-10-28T20:03:26.725Z,15.61
2022-10-28T20:06:05.114Z,15.49
2022-10-28T20:08:34.397Z,15.45
2022-10-28T20:11:03.271Z,15.58
2022-10-28T20:13:30.285Z,15.37
2022-10-28T20:16:01.008Z,15.55
2022-10-28T20:18:30.088Z,15.53
2022-10-28T20:20:57.073Z,15.31
2022-10-28T20:23:23.774Z,15.26
2022-10-28T20:25:52.046Z,15.31
2022-10-28T20:28:19.064Z,15.41
2022-10-28T20:30:55.801Z,15.33
2022-10-28T20:33:22.488Z,15.29
2022-10-28T20:35:48.984Z,15.37
2022-10-28T20:38:15.598Z,15.38
2022-10-28T20:40:42.103Z,15.40
2022-10-28T20:43:08.713Z,15.20
2022-10-28T20:45:35.307Z,15.18
2022-10-28T20:48:01.931Z,15.18
2022-10-28T20:50:28.459Z,15.29
2022-10-28T20:52:55.788Z,15.39
2022-10-28T20:55:22.489Z,15.32
2022-10-28T20:57:49.047Z,15.29
2022-10-28T21:00:16.061Z,15.14
2022-10-28T21:02:42.802Z,15.15
2022-10-28T21:05:09.421Z,15.20
2022-10-28T21:07:36.187Z,14.98
2022-10-28T21:10:02.795Z,14.83
2022-10-28T21:12:29.387Z,14.89
2022-10-28T21:14:55.909Z,14.99
2022-10-28T21:17:22.686Z,15.05
2022-10-28T21:19:49.229Z,14.85
2022-10-28T21:22:15.879Z,14.86
2022-10-28T21:24:42.383Z,14.89
2022-10-28T21:27:08.974Z,14.70
2022-10-28T21:29:35.610Z,14.61
2022-10-28T21:32:02.193Z,14.45
2022-10-28T21:34:28.698Z,14.50
2022-10-28T21:36:55.399Z,14.60
2022-10-28T21:39:21.924Z,14.62
2022-10-28T21:41:48.529Z,14.55
2022-10-28T21:44:15.129Z,14.49
2022-10-28T21:46:41.687Z,14.58
2022-10-28T21:49:08.228Z,14.72
2022-10-28T21:51:34.926Z,14.67
2022-10-28T21:54:01.428Z,14.75
2022-10-28T21:56:28.026Z,14.69
2022-10-28T21:58:55.193Z,14.69
2022-10-28T22:01:23.469Z,14.63
2022-10-28T22:03:51.895Z,14.55
2022-10-28T22:06:18.549Z,14.38
2022-10-28T22:08:45.087Z,14.43
2022-10-28T22:11:14.191Z,14.44
2022-10-28T22:13:40.807Z,14.62
2022-10-28T22:16:10.904Z,14.62
2022-10-28T22:18:38.372Z,14.67
2022-10-28T22:21:10.568Z,14.48
2022-10-28T22:23:37.652Z,14.54
2022-10-28T22:26:06.708Z,14.34
2022-10-28T22:28:33.684Z,14.59
2022-10-28T22:31:11.701Z,14.67
2022-10-28T22:33:39.137Z,14.68
2022-10-28T22:36:08.508Z,14.54
2022-10-28T22:38:35.406Z,14.58
2022-10-28T22:41:25.356Z,14.49
2022-10-28T22:43:57.289Z,14.50
2022-10-28T22:46:26.495Z,14.53
2022-10-28T22:48:53.536Z,14.53
2022-10-28T22:51:20.949Z,14.61
2022-10-28T22:53:48.258Z,14.64
2022-10-28T22:56:18.186Z,14.64
2022-10-28T22:58:44.710Z,14.62
2022-10-28T23:01:17.179Z,14.51
2022-10-28T23:03:46.111Z,14.48
2022-10-28T23:06:14.787Z,14.54
2022-10-28T23:08:42.949Z,14.54
2022-10-28T23:11:10.208Z,14.56
2022-10-28T23:16:11.393Z,14.47
2022-10-28T23:18:38.473Z,14.38
2022-10-28T23:21:12.059Z,14.38
2022-10-28T23:23:39.670Z,14.35
2022-10-28T23:26:06.649Z,14.35
2022-10-28T23:28:33.285Z,14.28
2022-10-28T23:31:01.376Z,14.27
2022-10-28T23:33:29.902Z,14.17
2022-10-28T23:35:58.504Z,13.83
2022-10-28T23:38:26.386Z,14.09
2022-10-28T23:41:06.475Z,14.17
2022-10-28T23:43:33.993Z,14.14
2022-10-28T23:46:01.374Z,14.10
2022-10-28T23:48:28.616Z,14.15
2022-10-28T23:50:55.739Z,14.15
2022-10-28T23:53:23.285Z,13.83
2022-10-28T23:55:50.758Z,14.03
2022-10-28T23:58:19.403Z,14.00
